sensor_id;sensor_type;location;lat;lon;timestamp;pressure;altitude;pressure_sealevel;temperature;humidity
60089;BME280;45961;53.574;55.878;2023-02-24T00:00:22;98654.31;;;-11.19;74.97
60089;BME280;45961;53.574;55.878;2023-02-24T00:01:33;98646.84;;;-11.31;74.84
60089;BME280;45961;53.574;55.878;2023-02-24T00:02:39;98663.91;;;-11.25;74.87
60089;BME280;45961;53.574;55.878;2023-02-24T00:03:40;98667.22;;;-11.13;75.02
60089;BME280;45961;53.574;55.878;2023-02-24T00:04:44;98676.56;;;-11.22;74.79
60089;BME280;45961;53.574;55.878;2023-02-24T00:05:51;98674.75;;;-11.25;74.79
60089;BME280;45961;53.574;55.878;2023-02-24T00:06:52;98675.16;;;-11.30;74.71
60089;BME280;45961;53.574;55.878;2023-02-24T00:07:53;98682.47;;;-11.33;74.58
60089;BME280;45961;53.574;55.878;2023-02-24T00:08:54;98682.25;;;-11.48;74.37
60089;BME280;45961;53.574;55.878;2023-02-24T00:09:55;98686.56;;;-11.34;74.56
60089;BME280;45961;53.574;55.878;2023-02-24T00:10:56;98670.41;;;-11.39;74.57
60089;BME280;45961;53.574;55.878;2023-02-24T00:12:03;98686.91;;;-11.29;74.43
60089;BME280;45961;53.574;55.878;2023-02-24T00:13:05;98690.84;;;-11.33;74.41
60089;BME280;45961;53.574;55.878;2023-02-24T00:14:08;98694.75;;;-11.36;74.58
60089;BME280;45961;53.574;55.878;2023-02-24T00:15:10;98690.91;;;-11.31;74.54
60089;BME280;45961;53.574;55.878;2023-02-24T00:16:14;98694.06;;;-11.34;74.52
60089;BME280;45961;53.574;55.878;2023-02-24T00:17:16;98688.03;;;-11.37;74.39
60089;BME280;45961;53.574;55.878;2023-02-24T00:18:17;98700.81;;;-11.33;74.50
60089;BME280;45961;53.574;55.878;2023-02-24T00:19:21;98692.78;;;-11.29;74.29
60089;BME280;45961;53.574;55.878;2023-02-24T00:20:23;98703.31;;;-11.33;74.40
60089;BME280;45961;53.574;55.878;2023-02-24T00:21:24;98695.59;;;-11.36;74.26
60089;BME280;45961;53.574;55.878;2023-02-24T00:22:25;98702.31;;;-11.35;73.83
60089;BME280;45961;53.574;55.878;2023-02-24T00:23:26;98691.38;;;-11.37;74.25
60089;BME280;45961;53.574;55.878;2023-02-24T00:24:27;98701.25;;;-11.38;74.01
60089;BME280;45961;53.574;55.878;2023-02-24T00:25:28;98701.38;;;-11.49;73.97
60089;BME280;45961;53.574;55.878;2023-02-24T00:26:29;98707.31;;;-11.47;74.06
60089;BME280;45961;53.574;55.878;2023-02-24T00:27:30;98705.28;;;-11.40;74.13
60089;BME280;45961;53.574;55.878;2023-02-24T00:28:35;98691.63;;;-11.69;74.03
60089;BME280;45961;53.574;55.878;2023-02-24T00:29:39;98695.53;;;-11.61;74.15
60089;BME280;45961;53.574;55.878;2023-02-24T00:30:41;98704.50;;;-11.51;74.46
60089;BME280;45961;53.574;55.878;2023-02-24T00:31:45;98722.63;;;-11.54;74.21
60089;BME280;45961;53.574;55.878;2023-02-24T00:32:46;98718.94;;;-11.59;74.27
60089;BME280;45961;53.574;55.878;2023-02-24T00:33:47;98726.88;;;-11.53;74.30
60089;BME280;45961;53.574;55.878;2023-02-24T00:34:50;98720.13;;;-11.54;74.30
60089;BME280;45961;53.574;55.878;2023-02-24T00:35:51;98723.41;;;-11.55;74.18
60089;BME280;45961;53.574;55.878;2023-02-24T00:36:52;98728.50;;;-11.53;74.15
60089;BME280;45961;53.574;55.878;2023-02-24T00:37:53;98731.31;;;-11.60;74.25
60089;BME280;45961;53.574;55.878;2023-02-24T00:38:57;98732.28;;;-11.70;74.20
60089;BME280;45961;53.574;55.878;2023-02-24T00:39:58;98728.69;;;-11.62;74.45
60089;BME280;45961;53.574;55.878;2023-02-24T00:40:59;98740.00;;;-11.67;74.36
60089;BME280;45961;53.574;55.878;2023-02-24T00:42:04;98738.38;;;-11.66;74.31
60089;BME280;45961;53.574;55.878;2023-02-24T00:43:06;98741.72;;;-11.66;74.24
60089;BME280;45961;53.574;55.878;2023-02-24T00:44:11;98744.13;;;-11.68;74.68
60089;BME280;45961;53.574;55.878;2023-02-24T00:45:13;98741.31;;;-11.72;74.74
60089;BME280;45961;53.574;55.878;2023-02-24T00:46:19;98746.06;;;-11.75;74.71
60089;BME280;45961;53.574;55.878;2023-02-24T00:47:20;98738.81;;;-11.84;74.86
60089;BME280;45961;53.574;55.878;2023-02-24T00:48:22;98747.25;;;-11.70;74.96
60089;BME280;45961;53.574;55.878;2023-02-24T00:49:29;98740.84;;;-11.78;75.23
60089;BME280;45961;53.574;55.878;2023-02-24T00:50:31;98742.16;;;-11.72;75.05
60089;BME280;45961;53.574;55.878;2023-02-24T00:51:38;98750.41;;;-11.73;74.98
60089;BME280;45961;53.574;55.878;2023-02-24T00:52:40;98751.94;;;-11.63;75.08
60089;BME280;45961;53.574;55.878;2023-02-24T00:53:42;98757.91;;;-11.73;74.92
60089;BME280;45961;53.574;55.878;2023-02-24T00:54:44;98755.09;;;-11.77;74.82
60089;BME280;45961;53.574;55.878;2023-02-24T00:55:46;98755.50;;;-11.95;74.89
60089;BME280;45961;53.574;55.878;2023-02-24T00:56:47;98748.78;;;-11.96;74.86
60089;BME280;45961;53.574;55.878;2023-02-24T00:57:49;98763.31;;;-12.02;74.85
60089;BME280;45961;53.574;55.878;2023-02-24T00:58:52;98756.16;;;-11.97;74.79
60089;BME280;45961;53.574;55.878;2023-02-24T00:59:53;98762.44;;;-11.90;74.64
60089;BME280;45961;53.574;55.878;2023-02-24T01:00:57;98763.31;;;-12.02;74.53
60089;BME280;45961;53.574;55.878;2023-02-24T01:02:00;98767.00;;;-11.97;74.30
60089;BME280;45961;53.574;55.878;2023-02-24T01:03:03;98770.38;;;-11.96;74.13
60089;BME280;45961;53.574;55.878;2023-02-24T01:04:04;98776.66;;;-12.01;73.85
60089;BME280;45961;53.574;55.878;2023-02-24T01:05:06;98765.81;;;-11.90;73.80
60089;BME280;45961;53.574;55.878;2023-02-24T01:06:10;98767.94;;;-12.06;73.46
60089;BME280;45961;53.574;55.878;2023-02-24T01:07:12;98779.16;;;-12.01;73.41
60089;BME280;45961;53.574;55.878;2023-02-24T01:08:13;98785.00;;;-12.01;73.28
60089;BME280;45961;53.574;55.878;2023-02-24T01:09:21;98780.66;;;-12.03;73.19
60089;BME280;45961;53.574;55.878;2023-02-24T01:10:22;98779.19;;;-12.23;73.15
60089;BME280;45961;53.574;55.878;2023-02-24T01:11:25;98785.03;;;-12.23;73.17
60089;BME280;45961;53.574;55.878;2023-02-24T01:12:45;98786.25;;;-12.17;73.21
60089;BME280;45961;53.574;55.878;2023-02-24T01:13:49;98798.34;;;-12.22;73.09
60089;BME280;45961;53.574;55.878;2023-02-24T01:14:51;98785.34;;;-12.30;72.79
60089;BME280;45961;53.574;55.878;2023-02-24T01:15:58;98795.09;;;-12.33;72.96
60089;BME280;45961;53.574;55.878;2023-02-24T01:17:03;98801.38;;;-12.26;72.68
60089;BME280;45961;53.574;55.878;2023-02-24T01:18:04;98803.00;;;-12.27;72.88
60089;BME280;45961;53.574;55.878;2023-02-24T01:19:06;98800.41;;;-12.28;72.63
60089;BME280;45961;53.574;55.878;2023-02-24T01:20:08;98798.78;;;-12.28;72.54
60089;BME280;45961;53.574;55.878;2023-02-24T01:21:19;98806.88;;;-12.30;72.33
60089;BME280;45961;53.574;55.878;2023-02-24T01:22:20;98805.69;;;-12.57;72.15
60089;BME280;45961;53.574;55.878;2023-02-24T01:23:21;98820.06;;;-12.43;72.24
60089;BME280;45961;53.574;55.878;2023-02-24T01:24:25;98821.44;;;-12.47;72.33
60089;BME280;45961;53.574;55.878;2023-02-24T01:25:26;98822.41;;;-12.66;72.26
60089;BME280;45961;53.574;55.878;2023-02-24T01:26:27;98825.16;;;-12.63;72.34
60089;BME280;45961;53.574;55.878;2023-02-24T01:27:30;98824.78;;;-12.58;72.27
60089;BME280;45961;53.574;55.878;2023-02-24T01:28:31;98821.44;;;-12.69;72.20
60089;BME280;45961;53.574;55.878;2023-02-24T01:29:32;98824.97;;;-12.55;72.09
60089;BME280;45961;53.574;55.878;2023-02-24T01:30:38;98832.97;;;-12.59;71.97
60089;BME280;45961;53.574;55.878;2023-02-24T01:31:40;98828.81;;;-12.48;71.78
60089;BME280;45961;53.574;55.878;2023-02-24T01:32:45;98822.91;;;-12.60;71.63
60089;BME280;45961;53.574;55.878;2023-02-24T01:33:46;98835.31;;;-12.82;71.58
60089;BME280;45961;53.574;55.878;2023-02-24T01:34:51;98851.78;;;-12.84;71.71
60089;BME280;45961;53.574;55.878;2023-02-24T01:35:52;98858.50;;;-12.83;71.86
60089;BME280;45961;53.574;55.878;2023-02-24T01:36:55;98855.19;;;-12.94;71.98
60089;BME280;45961;53.574;55.878;2023-02-24T01:37:56;98852.03;;;-12.81;72.01
60089;BME280;45961;53.574;55.878;2023-02-24T01:39:03;98825.84;;;-13.08;71.82
60089;BME280;45961;53.574;55.878;2023-02-24T01:40:07;98862.72;;;-12.82;72.07
60089;BME280;45961;53.574;55.878;2023-02-24T01:41:14;98855.19;;;-12.94;72.05
60089;BME280;45961;53.574;55.878;2023-02-24T01:42:19;98861.00;;;-12.83;71.76
60089;BME280;45961;53.574;55.878;2023-02-24T01:43:20;98868.25;;;-12.97;71.80
60089;BME280;45961;53.574;55.878;2023-02-24T01:45:27;98869.84;;;-12.87;71.54
60089;BME280;45961;53.574;55.878;2023-02-24T01:46:31;98868.97;;;-12.87;71.59
60089;BME280;45961;53.574;55.878;2023-02-24T01:47:33;98878.19;;;-12.86;71.31
60089;BME280;45961;53.574;55.878;2023-02-24T01:48:34;98869.56;;;-12.80;71.27
60089;BME280;45961;53.574;55.878;2023-02-24T01:49:38;98874.47;;;-12.91;71.13
60089;BME280;45961;53.574;55.878;2023-02-24T01:50:40;98874.47;;;-12.91;71.11
60089;BME280;45961;53.574;55.878;2023-02-24T01:51:48;98875.22;;;-12.93;71.30
60089;BME280;45961;53.574;55.878;2023-02-24T01:52:52;98883.91;;;-12.87;71.27
60089;BME280;45961;53.574;55.878;2023-02-24T01:53:55;98886.72;;;-13.05;71.19
60089;BME280;45961;53.574;55.878;2023-02-24T01:55:06;98877.06;;;-13.22;70.83
60089;BME280;45961;53.574;55.878;2023-02-24T01:56:08;98892.06;;;-13.10;70.94
60089;BME280;45961;53.574;55.878;2023-02-24T01:57:16;98913.53;;;-13.23;70.87
60089;BME280;45961;53.574;55.878;2023-02-24T01:58:23;98896.00;;;-13.45;70.74
60089;BME280;45961;53.574;55.878;2023-02-24T01:59:29;98900.84;;;-13.36;70.74
60089;BME280;45961;53.574;55.878;2023-02-24T02:00:30;98903.09;;;-13.49;70.72
60089;BME280;45961;53.574;55.878;2023-02-24T02:01:36;98906.84;;;-13.54;70.74
60089;BME280;45961;53.574;55.878;2023-02-24T02:02:43;98907.59;;;-13.65;70.60
60089;BME280;45961;53.574;55.878;2023-02-24T02:03:45;98907.72;;;-13.74;70.51
60089;BME280;45961;53.574;55.878;2023-02-24T02:04:57;98910.19;;;-13.74;70.57
60089;BME280;45961;53.574;55.878;2023-02-24T02:06:03;98916.66;;;-13.86;70.62
60089;BME280;45961;53.574;55.878;2023-02-24T02:07:05;98918.50;;;-13.94;70.75
60089;BME280;45961;53.574;55.878;2023-02-24T02:08:09;98925.31;;;-13.91;70.56
60089;BME280;45961;53.574;55.878;2023-02-24T02:09:13;98919.53;;;-13.82;70.76
60089;BME280;45961;53.574;55.878;2023-02-24T02:10:15;98929.31;;;-13.94;70.69
60089;BME280;45961;53.574;55.878;2023-02-24T02:11:18;98928.06;;;-13.88;70.80
60089;BME280;45961;53.574;55.878;2023-02-24T02:12:20;98917.66;;;-13.74;70.56
60089;BME280;45961;53.574;55.878;2023-02-24T02:13:21;98930.81;;;-13.75;70.75
60089;BME280;45961;53.574;55.878;2023-02-24T02:14:25;98910.91;;;-13.96;70.66
60089;BME280;45961;53.574;55.878;2023-02-24T02:15:31;98927.81;;;-13.91;70.52
60089;BME280;45961;53.574;55.878;2023-02-24T02:16:48;98942.56;;;-14.03;70.55
60089;BME280;45961;53.574;55.878;2023-02-24T02:18:04;98936.97;;;-14.11;70.42
60089;BME280;45961;53.574;55.878;2023-02-24T02:34:23;98960.00;;;-14.43;71.14
60089;BME280;45961;53.574;55.878;2023-02-24T02:36:59;98953.03;;;-14.47;71.05
60089;BME280;45961;53.574;55.878;2023-02-24T02:38:11;98967.69;;;-14.39;71.47
60089;BME280;45961;53.574;55.878;2023-02-24T02:39:49;98963.34;;;-14.42;71.37
60089;BME280;45961;53.574;55.878;2023-02-24T02:41:09;98969.94;;;-14.43;71.14
60089;BME280;45961;53.574;55.878;2023-02-24T02:42:23;98972.16;;;-14.46;71.19
60089;BME280;45961;53.574;55.878;2023-02-24T02:44:36;98973.41;;;-14.51;71.25
60089;BME280;45961;53.574;55.878;2023-02-24T02:48:53;98974.53;;;-14.37;71.35
60089;BME280;45961;53.574;55.878;2023-02-24T02:51:51;98988.03;;;-14.44;71.15
60089;BME280;45961;53.574;55.878;2023-02-24T02:52:59;98988.66;;;-14.46;71.02
60089;BME280;45961;53.574;55.878;2023-02-24T02:55:23;98990.72;;;-14.61;71.05
60089;BME280;45961;53.574;55.878;2023-02-24T02:56:41;98993.69;;;-14.65;71.15
60089;BME280;45961;53.574;55.878;2023-02-24T02:57:47;98998.53;;;-14.66;71.15
60089;BME280;45961;53.574;55.878;2023-02-24T02:58:54;99000.34;;;-14.74;71.33
60089;BME280;45961;53.574;55.878;2023-02-24T03:00:13;99006.31;;;-14.91;71.18
60089;BME280;45961;53.574;55.878;2023-02-24T03:01:25;99008.34;;;-14.87;71.39
60089;BME280;45961;53.574;55.878;2023-02-24T03:02:30;99006.16;;;-14.93;71.18
60089;BME280;45961;53.574;55.878;2023-02-24T03:03:44;99013.03;;;-14.90;71.15
60089;BME280;45961;53.574;55.878;2023-02-24T03:04:52;99011.31;;;-15.00;71.23
60089;BME280;45961;53.574;55.878;2023-02-24T03:06:34;99014.28;;;-14.85;71.18
60089;BME280;45961;53.574;55.878;2023-02-24T03:07:40;99012.63;;;-14.95;71.11
60089;BME280;45961;53.574;55.878;2023-02-24T03:08:50;99024.88;;;-14.96;71.49
60089;BME280;45961;53.574;55.878;2023-02-24T03:09:58;99018.66;;;-15.01;71.30
60089;BME280;45961;53.574;55.878;2023-02-24T03:11:02;99044.34;;;-15.01;71.33
60089;BME280;45961;53.574;55.878;2023-02-24T03:12:09;99031.81;;;-15.02;71.23
60089;BME280;45961;53.574;55.878;2023-02-24T03:13:11;99025.41;;;-15.09;71.12
60089;BME280;45961;53.574;55.878;2023-02-24T03:14:18;99033.31;;;-15.13;71.13
60089;BME280;45961;53.574;55.878;2023-02-24T03:15:25;99040.03;;;-15.12;71.02
60089;BME280;45961;53.574;55.878;2023-02-24T03:16:27;99042.03;;;-15.08;71.13
60089;BME280;45961;53.574;55.878;2023-02-24T03:17:31;99019.94;;;-15.24;71.05
60089;BME280;45961;53.574;55.878;2023-02-24T03:18:37;99048.44;;;-15.01;71.12
60089;BME280;45961;53.574;55.878;2023-02-24T03:19:40;99041.41;;;-14.97;70.95
60089;BME280;45961;53.574;55.878;2023-02-24T03:20:51;99048.84;;;-14.97;71.08
60089;BME280;45961;53.574;55.878;2023-02-24T03:22:06;99048.72;;;-14.98;71.07
60089;BME280;45961;53.574;55.878;2023-02-24T03:23:15;99047.56;;;-15.02;71.06
60089;BME280;45961;53.574;55.878;2023-02-24T03:24:18;99064.88;;;-14.93;71.14
60089;BME280;45961;53.574;55.878;2023-02-24T03:25:25;99054.88;;;-14.84;71.16
60089;BME280;45961;53.574;55.878;2023-02-24T03:27:48;99066.31;;;-14.86;70.85
60089;BME280;45961;53.574;55.878;2023-02-24T03:31:15;99076.50;;;-14.83;70.84
60089;BME280;45961;53.574;55.878;2023-02-24T03:32:31;99066.53;;;-14.75;71.00
60089;BME280;45961;53.574;55.878;2023-02-24T03:34:09;99068.38;;;-14.72;71.02
60089;BME280;45961;53.574;55.878;2023-02-24T03:35:18;99096.16;;;-14.76;70.71
60089;BME280;45961;53.574;55.878;2023-02-24T03:36:21;99072.47;;;-14.91;71.03
60089;BME280;45961;53.574;55.878;2023-02-24T03:37:24;99082.19;;;-14.84;71.15
60089;BME280;45961;53.574;55.878;2023-02-24T03:38:30;99081.00;;;-14.79;71.30
60089;BME280;45961;53.574;55.878;2023-02-24T03:39:31;99077.25;;;-14.65;71.34
60089;BME280;45961;53.574;55.878;2023-02-24T03:40:41;99081.22;;;-14.68;71.07
60089;BME280;45961;53.574;55.878;2023-02-24T03:42:22;99081.09;;;-14.69;71.34
60089;BME280;45961;53.574;55.878;2023-02-24T03:43:23;99077.34;;;-14.74;71.55
60089;BME280;45961;53.574;55.878;2023-02-24T03:44:29;99077.47;;;-14.54;71.66
60089;BME280;45961;53.574;55.878;2023-02-24T03:45:37;99081.69;;;-14.53;71.83
60089;BME280;45961;53.574;55.878;2023-02-24T03:46:38;99081.41;;;-14.56;71.67
60089;BME280;45961;53.574;55.878;2023-02-24T03:47:43;99086.19;;;-14.49;71.74
60089;BME280;45961;53.574;55.878;2023-02-24T03:48:51;99087.09;;;-14.38;71.43
60089;BME280;45961;53.574;55.878;2023-02-24T03:49:55;99088.72;;;-14.38;71.41
60089;BME280;45961;53.574;55.878;2023-02-24T03:50:58;99086.47;;;-14.35;71.13
60089;BME280;45961;53.574;55.878;2023-02-24T03:52:36;99091.72;;;-14.32;71.15
60089;BME280;45961;53.574;55.878;2023-02-24T03:55:25;99093.69;;;-14.38;70.85
60089;BME280;45961;53.574;55.878;2023-02-24T03:56:44;99103.41;;;-14.31;70.91
60089;BME280;45961;53.574;55.878;2023-02-24T04:00:30;99122.25;;;-14.62;70.67
60089;BME280;45961;53.574;55.878;2023-02-24T04:04:32;99132.88;;;-14.82;70.05
60089;BME280;45961;53.574;55.878;2023-02-24T04:05:47;99138.09;;;-14.71;70.32
60089;BME280;45961;53.574;55.878;2023-02-24T04:06:57;99139.63;;;-14.62;70.27
60089;BME280;45961;53.574;55.878;2023-02-24T04:08:03;99119.09;;;-14.70;69.82
60089;BME280;45961;53.574;55.878;2023-02-24T04:09:18;99103.44;;;-14.69;69.92
60089;BME280;45961;53.574;55.878;2023-02-24T04:10:41;99167.38;;;-14.58;69.83
60089;BME280;45961;53.574;55.878;2023-02-24T04:12:05;99137.41;;;-14.59;69.88
60089;BME280;45961;53.574;55.878;2023-02-24T04:13:27;99142.66;;;-14.56;69.94
60089;BME280;45961;53.574;55.878;2023-02-24T04:14:50;99144.56;;;-14.44;69.92
60089;BME280;45961;53.574;55.878;2023-02-24T04:15:59;99152.22;;;-14.32;69.86
60089;BME280;45961;53.574;55.878;2023-02-24T04:17:02;99153.25;;;-14.11;69.89
60089;BME280;45961;53.574;55.878;2023-02-24T04:18:17;99149.69;;;-14.04;69.51
60089;BME280;45961;53.574;55.878;2023-02-24T04:19:24;99143.00;;;-13.76;68.99
60089;BME280;45961;53.574;55.878;2023-02-24T04:20:30;99147.09;;;-13.48;68.94
60089;BME280;45961;53.574;55.878;2023-02-24T04:21:36;99138.94;;;-13.16;68.47
60089;BME280;45961;53.574;55.878;2023-02-24T04:22:39;99137.97;;;-13.08;67.53
60089;BME280;45961;53.574;55.878;2023-02-24T04:23:43;99157.28;;;-12.95;67.27
60089;BME280;45961;53.574;55.878;2023-02-24T04:24:47;99148.47;;;-12.81;66.62
60089;BME280;45961;53.574;55.878;2023-02-24T04:25:51;99145.97;;;-12.71;66.10
60089;BME280;45961;53.574;55.878;2023-02-24T04:26:58;99141.84;;;-12.20;65.87
60089;BME280;45961;53.574;55.878;2023-02-24T04:28:04;99143.97;;;-12.24;64.86
60089;BME280;45961;53.574;55.878;2023-02-24T04:29:11;99147.09;;;-12.27;64.74
60089;BME280;45961;53.574;55.878;2023-02-24T04:30:18;99161.72;;;-12.41;64.26
60089;BME280;45961;53.574;55.878;2023-02-24T04:31:21;99158.81;;;-12.46;64.23
60089;BME280;45961;53.574;55.878;2023-02-24T04:32:27;99165.91;;;-12.51;63.97
60089;BME280;45961;53.574;55.878;2023-02-24T04:33:29;99179.25;;;-12.71;64.21
60089;BME280;45961;53.574;55.878;2023-02-24T04:34:30;99176.38;;;-12.75;64.41
60089;BME280;45961;53.574;55.878;2023-02-24T04:35:33;99180.44;;;-12.96;64.51
60089;BME280;45961;53.574;55.878;2023-02-24T04:36:34;99185.00;;;-13.11;64.88
60089;BME280;45961;53.574;55.878;2023-02-24T04:37:38;99179.78;;;-13.24;64.82
60089;BME280;45961;53.574;55.878;2023-02-24T04:38:46;99194.97;;;-13.21;65.27
60089;BME280;45961;53.574;55.878;2023-02-24T04:39:48;99195.81;;;-13.21;65.56
60089;BME280;45961;53.574;55.878;2023-02-24T04:40:58;99195.22;;;-13.28;65.85
60089;BME280;45961;53.574;55.878;2023-02-24T04:41:59;99202.88;;;-13.35;65.58
60089;BME280;45961;53.574;55.878;2023-02-24T04:43:01;99209.00;;;-13.32;65.91
60089;BME280;45961;53.574;55.878;2023-02-24T04:44:02;99203.41;;;-13.19;66.03
60089;BME280;45961;53.574;55.878;2023-02-24T04:45:04;99211.66;;;-13.30;65.90
60089;BME280;45961;53.574;55.878;2023-02-24T04:46:09;99213.19;;;-13.41;65.91
60089;BME280;45961;53.574;55.878;2023-02-24T04:47:11;99212.19;;;-13.43;65.87
60089;BME280;45961;53.574;55.878;2023-02-24T04:48:12;99219.22;;;-13.29;66.09
60089;BME280;45961;53.574;55.878;2023-02-24T04:49:14;99222.88;;;-13.44;66.25
60089;BME280;45961;53.574;55.878;2023-02-24T04:50:17;99209.28;;;-13.29;66.19
60089;BME280;45961;53.574;55.878;2023-02-24T04:51:24;99210.63;;;-13.32;66.07
60089;BME280;45961;53.574;55.878;2023-02-24T04:52:25;99219.31;;;-13.37;66.07
60089;BME280;45961;53.574;55.878;2023-02-24T04:53:26;99217.81;;;-13.35;66.04
60089;BME280;45961;53.574;55.878;2023-02-24T04:54:27;99216.63;;;-13.30;66.25
60089;BME280;45961;53.574;55.878;2023-02-24T04:55:30;99181.41;;;-13.54;66.13
60089;BME280;45961;53.574;55.878;2023-02-24T04:56:35;99209.66;;;-13.53;66.37
60089;BME280;45961;53.574;55.878;2023-02-24T04:57:36;99223.34;;;-13.29;66.48
60089;BME280;45961;53.574;55.878;2023-02-24T04:58:38;99232.25;;;-13.41;66.59
60089;BME280;45961;53.574;55.878;2023-02-24T04:59:39;99233.13;;;-13.41;66.55
60089;BME280;45961;53.574;55.878;2023-02-24T05:00:40;99239.91;;;-13.30;66.40
60089;BME280;45961;53.574;55.878;2023-02-24T05:01:42;99239.66;;;-13.23;66.47
60089;BME280;45961;53.574;55.878;2023-02-24T05:02:43;99232.44;;;-13.30;66.26
60089;BME280;45961;53.574;55.878;2023-02-24T05:03:44;99248.47;;;-13.55;66.31
60089;BME280;45961;53.574;55.878;2023-02-24T05:04:47;99248.16;;;-13.39;66.33
60089;BME280;45961;53.574;55.878;2023-02-24T05:05:50;99243.09;;;-13.31;66.52
60089;BME280;45961;53.574;55.878;2023-02-24T05:06:51;99240.00;;;-13.28;66.55
60089;BME280;45961;53.574;55.878;2023-02-24T05:08:04;99245.00;;;-13.28;66.14
60089;BME280;45961;53.574;55.878;2023-02-24T05:09:06;99247.50;;;-13.18;66.03
60089;BME280;45961;53.574;55.878;2023-02-24T05:10:14;99243.56;;;-13.06;65.80
60089;BME280;45961;53.574;55.878;2023-02-24T05:11:15;99250.50;;;-13.12;65.63
60089;BME280;45961;53.574;55.878;2023-02-24T05:12:16;99249.41;;;-13.05;65.61
60089;BME280;45961;53.574;55.878;2023-02-24T05:13:23;99221.16;;;-13.06;65.57
60089;BME280;45961;53.574;55.878;2023-02-24T05:14:27;99243.16;;;-12.71;65.48
60089;BME280;45961;53.574;55.878;2023-02-24T05:15:28;99246.31;;;-12.53;65.26
60089;BME280;45961;53.574;55.878;2023-02-24T05:16:32;99248.44;;;-12.48;65.14
60089;BME280;45961;53.574;55.878;2023-02-24T05:17:33;99248.44;;;-12.48;65.25
60089;BME280;45961;53.574;55.878;2023-02-24T05:18:37;99249.31;;;-12.47;65.11
60089;BME280;45961;53.574;55.878;2023-02-24T05:19:38;99259.16;;;-12.38;64.88
60089;BME280;45961;53.574;55.878;2023-02-24T05:21:14;99255.16;;;-12.47;64.91
60089;BME280;45961;53.574;55.878;2023-02-24T05:22:33;99268.25;;;-12.39;64.66
60089;BME280;45961;53.574;55.878;2023-02-24T05:23:45;99267.06;;;-12.34;64.57
60089;BME280;45961;53.574;55.878;2023-02-24T05:24:46;99264.25;;;-12.47;64.37
60089;BME280;45961;53.574;55.878;2023-02-24T05:25:47;99282.00;;;-12.83;64.24
60089;BME280;45961;53.574;55.878;2023-02-24T05:26:48;99285.44;;;-13.02;64.06
60089;BME280;45961;53.574;55.878;2023-02-24T05:27:50;99285.81;;;-12.97;64.45
60089;BME280;45961;53.574;55.878;2023-02-24T05:28:53;99286.19;;;-12.93;64.47
60089;BME280;45961;53.574;55.878;2023-02-24T05:29:59;99292.66;;;-12.95;64.33
60089;BME280;45961;53.574;55.878;2023-02-24T05:31:05;99279.72;;;-12.90;64.09
60089;BME280;45961;53.574;55.878;2023-02-24T05:32:08;99288.47;;;-12.85;64.14
60089;BME280;45961;53.574;55.878;2023-02-24T05:33:09;99287.66;;;-12.95;63.77
60089;BME280;45961;53.574;55.878;2023-02-24T05:34:10;99277.81;;;-13.03;63.64
60089;BME280;45961;53.574;55.878;2023-02-24T05:35:16;99300.31;;;-13.12;63.61
60089;BME280;45961;53.574;55.878;2023-02-24T05:36:20;99284.41;;;-13.04;63.86
60089;BME280;45961;53.574;55.878;2023-02-24T05:37:21;99290.16;;;-12.95;63.88
60089;BME280;45961;53.574;55.878;2023-02-24T05:38:22;99284.75;;;-13.09;64.02
60089;BME280;45961;53.574;55.878;2023-02-24T05:39:23;99295.84;;;-13.35;63.78
60089;BME280;45961;53.574;55.878;2023-02-24T05:40:27;99303.41;;;-13.14;64.07
60089;BME280;45961;53.574;55.878;2023-02-24T05:41:29;99309.03;;;-13.07;64.01
60089;BME280;45961;53.574;55.878;2023-02-24T05:42:35;99311.19;;;-13.01;63.88
60089;BME280;45961;53.574;55.878;2023-02-24T05:43:36;99310.22;;;-13.22;63.78
60089;BME280;45961;53.574;55.878;2023-02-24T05:44:40;99306.25;;;-12.91;63.98
60089;BME280;45961;53.574;55.878;2023-02-24T05:45:42;99302.97;;;-13.00;63.84
60089;BME280;45961;53.574;55.878;2023-02-24T05:46:44;99307.13;;;-12.90;63.85
60089;BME280;45961;53.574;55.878;2023-02-24T05:47:46;99303.94;;;-12.79;63.77
60089;BME280;45961;53.574;55.878;2023-02-24T05:48:49;99315.34;;;-12.91;63.66
60089;BME280;45961;53.574;55.878;2023-02-24T05:49:50;99311.97;;;-12.92;63.45
60089;BME280;45961;53.574;55.878;2023-02-24T05:50:54;99323.38;;;-13.04;63.44
60089;BME280;45961;53.574;55.878;2023-02-24T05:51:56;99317.97;;;-12.90;63.28
60089;BME280;45961;53.574;55.878;2023-02-24T05:53:03;99314.59;;;-12.61;63.26
60089;BME280;45961;53.574;55.878;2023-02-24T05:54:07;99338.31;;;-12.75;63.05
60089;BME280;45961;53.574;55.878;2023-02-24T05:55:12;99328.56;;;-12.82;63.04
60089;BME280;45961;53.574;55.878;2023-02-24T05:56:14;99313.78;;;-12.71;63.28
60089;BME280;45961;53.574;55.878;2023-02-24T05:57:20;99320.13;;;-12.74;63.24
60089;BME280;45961;53.574;55.878;2023-02-24T05:58:23;99326.41;;;-12.59;63.02
60089;BME280;45961;53.574;55.878;2023-02-24T05:59:25;99285.16;;;-13.05;62.83
60089;BME280;45961;53.574;55.878;2023-02-24T06:00:33;99329.09;;;-12.76;62.89
60089;BME280;45961;53.574;55.878;2023-02-24T06:01:40;99328.34;;;-12.85;62.98
60089;BME280;45961;53.574;55.878;2023-02-24T06:02:42;99340.25;;;-12.91;63.10
60089;BME280;45961;53.574;55.878;2023-02-24T06:03:49;99347.63;;;-12.83;62.85
60089;BME280;45961;53.574;55.878;2023-02-24T06:04:50;99347.50;;;-12.84;63.04
60089;BME280;45961;53.574;55.878;2023-02-24T06:05:58;99298.00;;;-13.00;63.11
60089;BME280;45961;53.574;55.878;2023-02-24T06:07:16;99354.88;;;-12.86;62.96
60089;BME280;45961;53.574;55.878;2023-02-24T06:08:19;99340.81;;;-12.75;62.85
60089;BME280;45961;53.574;55.878;2023-02-24T06:09:20;99342.81;;;-12.81;62.76
60089;BME280;45961;53.574;55.878;2023-02-24T06:10:22;99357.41;;;-12.95;62.92
60089;BME280;45961;53.574;55.878;2023-02-24T06:11:24;99358.75;;;-12.79;63.23
60089;BME280;45961;53.574;55.878;2023-02-24T06:12:32;99349.59;;;-12.70;63.65
60089;BME280;45961;53.574;55.878;2023-02-24T06:13:33;99351.50;;;-12.47;63.52